Time;durP1;ratioP1;P1;durP2;ratioP2;P2;SDS_P1;SDS_P2;PMS_P1;PMS_P2;Temp;Humidity;BMP_temperature;BMP_pressure;BME280_temperature;BME280_humidity;BME280_pressure;Samples;Min_cycle;Max_cycle;Signal;HPM_P1;HPM_P2
2022/05/28 00:02:13;;;;;;;;;;;;;;;21.95;30.58;97679.75;5022144;28;926;-74
2022/05/28 00:04:38;;;;;;;;;;;;;;;21.63;30.90;97678.78;5021749;28;977;-74
2022/05/28 00:07:04;;;;;;;;;;;;;;;21.38;31.06;97684.41;5019154;28;957;-75
2022/05/28 00:09:29;;;;;;;;;;;;;;;21.38;30.83;97678.75;5019483;28;961;-74
2022/05/28 00:11:55;;;;;;;;;;;;;;;21.33;30.99;97666.75;5019366;28;1073;-74
2022/05/28 00:14:20;;;;;;;;;;;;;;;21.23;31.04;97673.50;5019400;28;983;-74
2022/05/28 00:16:46;;;;;;;;;;;;;;;21.40;30.64;97664.94;5016537;28;1068;-75
2022/05/28 00:19:11;;;;;;;;;;;;;;;21.38;30.64;97664.59;5016481;28;1903;-74
2022/05/28 00:21:37;;;;;;;;;;;;;;;21.25;30.98;97670.22;5016127;28;1033;-74
2022/05/28 00:24:02;;;;;;;;;;;;;;;21.24;31.06;97669.44;5015973;28;926;-75
2022/05/28 00:26:28;;;;;;;;;;;;;;;21.25;31.01;97658.91;5016094;28;958;-74
2022/05/28 00:28:53;;;;;;;;;;;;;;;21.18;31.06;97657.06;4995908;28;1009;-74
2022/05/28 00:31:19;;;;;;;;;;;;;;;21.18;31.19;97657.06;4996475;28;960;-74
2022/05/28 00:33:44;;;;;;;;;;;;;;;21.10;31.02;97652.09;4996090;28;986;-75
2022/05/28 00:36:10;;;;;;;;;;;;;;;21.22;30.91;97648.50;4957092;29;1051;-74
2022/05/28 00:38:36;;;;;;;;;;;;;;;21.31;30.55;97638.13;4956965;29;1899;-74
2022/05/28 00:41:01;;;;;;;;;;;;;;;21.27;30.79;97640.22;4909605;29;1049;-74
2022/05/28 00:43:27;;;;;;;;;;;;;;;21.12;30.97;97650.41;4957244;29;1024;-74
2022/05/28 00:45:56;;;;;;;;;;;;;;;21.30;31.19;97630.09;4957249;29;942;-75
2022/05/28 00:48:22;;;;;;;;;;;;;;;21.57;31.05;97629.63;4900235;29;1176;-74
2022/05/28 00:50:48;;;;;;;;;;;;;;;21.76;30.96;97631.44;4862789;29;1015;-74
2022/05/28 00:53:13;;;;;;;;;;;;;;;21.68;30.83;97624.41;4862647;29;1010;-74
2022/05/28 00:55:39;;;;;;;;;;;;;;;21.38;31.25;97617.28;4862732;29;1264;-74
2022/05/28 00:58:05;;;;;;;;;;;;;;;21.33;31.32;97617.84;4862899;29;943;-74
2022/05/28 01:00:31;;;;;;;;;;;;;;;21.34;30.86;97610.94;4890917;29;1915;-75
2022/05/28 01:03:02;;;;;;;;;;;;;;;21.30;31.10;97605.41;4899694;29;1078;-74
2022/05/28 01:05:37;;;;;;;;;;;;;;;21.33;30.92;97601.66;4900233;29;994;-75
2022/05/28 01:08:03;;;;;;;;;;;;;;;21.35;30.65;97597.56;4875842;29;973;-74
2022/05/28 01:10:32;;;;;;;;;;;;;;;21.20;30.91;97595.19;4881154;29;1027;-74
2022/05/28 01:13:02;;;;;;;;;;;;;;;21.14;31.02;97597.00;4862106;29;1026;-74
2022/05/28 01:15:35;;;;;;;;;;;;;;;21.18;30.93;97602.53;4862409;29;1038;-75
2022/05/28 01:18:14;;;;;;;;;;;;;;;21.19;31.14;97592.78;4862024;29;951;-74
2022/05/28 01:20:40;;;;;;;;;;;;;;;21.28;30.59;97590.88;4862276;29;1021;-75
2022/05/28 01:23:12;;;;;;;;;;;;;;;21.27;30.47;97580.81;4880873;29;1043;-74
2022/05/28 01:25:56;;;;;;;;;;;;;;;21.36;31.47;97583.00;4880696;29;1060;-75
2022/05/28 01:28:23;;;;;;;;;;;;;;;21.67;30.72;97583.19;4880155;29;983;-74
2022/05/28 01:30:48;;;;;;;;;;;;;;;21.72;30.37;97582.63;4880453;29;1135;-73
2022/05/28 01:33:14;;;;;;;;;;;;;;;21.51;30.80;97578.47;4884312;29;1154;-74
2022/05/28 01:35:39;;;;;;;;;;;;;;;21.47;30.45;97579.81;4899350;29;1000;-75
2022/05/28 01:38:05;;;;;;;;;;;;;;;21.35;30.65;97578.59;4887173;29;1115;-74
2022/05/28 01:40:30;;;;;;;;;;;;;;;21.40;30.48;97577.19;4861266;29;1911;-74
2022/05/28 01:42:56;;;;;;;;;;;;;;;21.30;30.60;97571.44;4864202;29;1240;-74
2022/05/28 01:45:24;;;;;;;;;;;;;;;21.17;30.85;97581.16;4883347;29;1145;-75
2022/05/28 01:47:49;;;;;;;;;;;;;;;21.18;31.19;97580.69;4861346;29;1102;-74
2022/05/28 01:50:15;;;;;;;;;;;;;;;21.14;31.02;97585.69;4832754;29;1073;-74
2022/05/28 01:52:40;;;;;;;;;;;;;;;21.24;30.90;97590.22;4842658;29;1001;-74
2022/05/28 01:55:06;;;;;;;;;;;;;;;21.23;30.70;97588.59;4843125;29;1025;-75
2022/05/28 01:57:31;;;;;;;;;;;;;;;21.04;31.06;97581.16;4842884;29;968;-74
2022/05/28 01:59:57;;;;;;;;;;;;;;;21.10;30.75;97587.81;4843066;29;1978;-74
2022/05/28 02:02:22;;;;;;;;;;;;;;;21.22;30.46;97587.03;4843549;29;911;-75
2022/05/28 02:04:48;;;;;;;;;;;;;;;21.50;31.00;97584.56;4842776;29;1079;-74
2022/05/28 02:07:14;;;;;;;;;;;;;;;21.73;30.59;97583.41;4827765;29;1012;-74
2022/05/28 02:09:44;;;;;;;;;;;;;;;21.72;30.56;97590.31;4842712;29;956;-75
2022/05/28 02:12:19;;;;;;;;;;;;;;;21.41;30.84;97587.28;4856942;29;984;-74
2022/05/28 02:15:02;;;;;;;;;;;;;;;21.21;30.93;97579.78;4861351;29;1003;-74
2022/05/28 02:17:31;;;;;;;;;;;;;;;21.19;30.79;97587.94;4872310;29;1033;-74
2022/05/28 02:20:14;;;;;;;;;;;;;;;21.24;30.65;97578.91;4898173;29;1988;-75
2022/05/28 02:22:48;;;;;;;;;;;;;;;21.16;31.14;97580.34;4937510;29;1141;-74
2022/05/28 02:25:15;;;;;;;;;;;;;;;21.13;31.23;97583.28;4964988;28;1018;-75
2022/05/28 02:27:40;;;;;;;;;;;;;;;21.19;30.93;97582.28;4958719;28;1028;-74
2022/05/28 02:30:06;;;;;;;;;;;;;;;21.16;30.82;97586.00;4964402;28;1009;-74
2022/05/28 02:32:32;;;;;;;;;;;;;;;21.21;30.78;97585.44;4974604;28;974;-74
2022/05/28 02:34:57;;;;;;;;;;;;;;;21.19;31.19;97587.94;4935772;29;963;-74
2022/05/28 02:37:24;;;;;;;;;;;;;;;21.55;30.89;97586.81;4935819;29;1025;-75
2022/05/28 02:39:49;;;;;;;;;;;;;;;21.90;30.30;97589.69;4935343;29;1907;-74
2022/05/28 02:42:15;;;;;;;;;;;;;;;21.70;30.33;97587.91;4935777;29;1195;-75
2022/05/28 02:44:40;;;;;;;;;;;;;;;21.44;31.03;97586.38;4935796;29;1066;-75
2022/05/28 02:47:06;;;;;;;;;;;;;;;21.46;30.56;97589.56;4935857;29;1116;-75
2022/05/28 02:49:31;;;;;;;;;;;;;;;21.47;30.40;97588.31;4904457;29;936;-74
2022/05/28 02:51:59;;;;;;;;;;;;;;;21.37;30.65;97586.63;4879280;29;1022;-74
2022/05/28 02:54:24;;;;;;;;;;;;;;;21.24;30.95;97583.75;4842442;29;957;-74
2022/05/28 02:56:50;;;;;;;;;;;;;;;21.22;31.13;97587.03;4842040;29;1003;-74
2022/05/28 02:59:15;;;;;;;;;;;;;;;21.04;31.42;97589.63;4836528;29;1907;-75
2022/05/28 03:01:41;;;;;;;;;;;;;;;21.25;30.84;97580.47;4832835;29;1322;-74
2022/05/28 03:04:06;;;;;;;;;;;;;;;21.20;31.03;97583.88;4812295;29;1287;-74
2022/05/28 03:06:32;;;;;;;;;;;;;;;21.22;30.82;97587.03;4860613;29;998;-74
2022/05/28 03:08:57;;;;;;;;;;;;;;;21.21;30.83;97590.31;4860602;29;1091;-74
2022/05/28 03:11:23;;;;;;;;;;;;;;;21.19;30.94;97599.28;4860289;29;1233;-74
2022/05/28 03:13:48;;;;;;;;;;;;;;;21.20;30.90;97597.22;4859934;29;1296;-74
2022/05/28 03:16:14;;;;;;;;;;;;;;;21.44;31.31;97592.81;4860111;29;1313;-74
2022/05/28 03:18:39;;;;;;;;;;;;;;;21.92;30.28;97598.56;4860118;29;1989;-74
2022/05/28 03:21:05;;;;;;;;;;;;;;;22.01;30.13;97601.44;4860436;29;1311;-75
2022/05/28 03:23:30;;;;;;;;;;;;;;;21.62;30.64;97597.13;4942193;28;1248;-74
2022/05/28 03:25:56;;;;;;;;;;;;;;;21.38;30.90;97593.84;4973447;28;1341;-74
2022/05/28 03:28:22;;;;;;;;;;;;;;;21.43;30.89;97598.94;4973890;28;1238;-76
2022/05/28 03:30:47;;;;;;;;;;;;;;;21.39;30.80;97589.78;4918058;29;1248;-75
2022/05/28 03:33:12;;;;;;;;;;;;;;;21.41;30.64;97588.09;4954236;29;1263;-76
2022/05/28 03:35:39;;;;;;;;;;;;;;;21.33;30.65;97604.50;4954518;29;1235;-75
2022/05/28 03:38:05;;;;;;;;;;;;;;;21.28;30.91;97595.75;4954547;29;1283;-75
2022/05/28 03:40:30;;;;;;;;;;;;;;;21.38;30.73;97588.19;4953878;29;1985;-75
2022/05/28 03:42:56;;;;;;;;;;;;;;;21.47;30.45;97583.44;4954092;29;1208;-75
2022/05/28 03:45:25;;;;;;;;;;;;;;;21.30;30.77;97576.31;4954477;29;940;-75
2022/05/28 03:47:50;;;;;;;;;;;;;;;21.20;30.96;97572.56;4954816;29;1063;-75
2022/05/28 03:50:16;;;;;;;;;;;;;;;21.25;30.95;97586.13;4954683;29;1059;-75
2022/05/28 03:52:41;;;;;;;;;;;;;;;21.25;30.81;97574.81;4957961;28;1320;-75
2022/05/28 03:55:07;;;;;;;;;;;;;;;21.24;31.18;97581.72;4957803;29;1247;-75
2022/05/28 03:57:32;;;;;;;;;;;;;;;21.31;30.67;97590.00;4957935;29;957;-76
2022/05/28 03:59:58;;;;;;;;;;;;;;;21.26;30.95;97582.06;4957955;29;1979;-76
2022/05/28 04:02:24;;;;;;;;;;;;;;;21.19;31.03;97590.78;4972675;28;987;-75
2022/05/28 04:04:49;;;;;;;;;;;;;;;21.24;31.13;97584.56;4977262;28;968;-75
2022/05/28 04:07:15;;;;;;;;;;;;;;;21.27;31.21;97589.28;4981509;28;971;-75
2022/05/28 04:09:41;;;;;;;;;;;;;;;21.27;30.93;97591.34;4996437;28;931;-75
2022/05/28 04:12:06;;;;;;;;;;;;;;;21.24;30.96;97592.22;4996386;28;1162;-75
2022/05/28 04:14:32;;;;;;;;;;;;;;;21.24;31.08;97590.22;4996382;28;875;-75
2022/05/28 04:16:57;;;;;;;;;;;;;;;21.36;30.62;97594.31;4996683;28;790;-75
2022/05/28 04:19:23;;;;;;;;;;;;;;;21.31;30.91;97584.34;4995806;28;1914;-76
2022/05/28 04:21:48;;;;;;;;;;;;;;;21.05;31.25;97592.00;4980240;28;984;-75
2022/05/28 04:24:14;;;;;;;;;;;;;;;21.12;31.33;97590.19;4995889;28;1457;-75
2022/05/28 04:26:39;;;;;;;;;;;;;;;21.59;31.04;97601.66;4996549;28;1031;-76
2022/05/28 04:29:04;;;;;;;;;;;;;;;21.92;30.99;97598.56;4996034;28;1064;-75
2022/05/28 04:31:30;;;;;;;;;;;;;;;21.93;30.68;97608.63;4996313;28;1033;-76
2022/05/28 04:33:55;;;;;;;;;;;;;;;21.66;31.01;97609.91;4996732;28;954;-75
2022/05/28 04:36:21;;;;;;;;;;;;;;;21.62;31.08;97606.41;4995849;28;978;-76
2022/05/28 04:38:47;;;;;;;;;;;;;;;21.48;31.38;97609.69;4995974;28;1907;-76
2022/05/28 04:41:12;;;;;;;;;;;;;;;21.43;31.09;97602.56;5011731;28;1073;-75
2022/05/28 04:43:38;;;;;;;;;;;;;;;21.43;31.19;97610.25;5017896;28;901;-75
2022/05/28 04:46:03;;;;;;;;;;;;;;;21.35;31.21;97617.38;5017700;28;984;-75
2022/05/28 04:48:28;;;;;;;;;;;;;;;21.35;31.22;97611.72;5018020;28;919;-75
2022/05/28 04:50:54;;;;;;;;;;;;;;;21.38;31.07;97622.16;5017527;28;1474;-75
2022/05/28 04:53:19;;;;;;;;;;;;;;;21.36;31.19;97631.09;5018179;28;905;-75
2022/05/28 04:55:45;;;;;;;;;;;;;;;21.40;30.75;97639.47;5015445;28;1112;-75
2022/05/28 04:58:11;;;;;;;;;;;;;;;21.31;30.92;97635.28;5017578;28;957;-75
2022/05/28 05:00:36;;;;;;;;;;;;;;;21.39;30.89;97637.88;5017703;28;1968;-75
2022/05/28 05:03:02;;;;;;;;;;;;;;;21.25;30.83;97633.44;5017248;28;1157;-75
2022/05/28 05:05:27;;;;;;;;;;;;;;;21.27;30.97;97637.41;5017851;28;958;-75
2022/05/28 05:07:53;;;;;;;;;;;;;;;21.18;31.22;97645.75;5017651;28;1148;-75
2022/05/28 05:10:18;;;;;;;;;;;;;;;21.24;31.44;97651.66;5017413;28;971;-75
2022/05/28 05:12:44;;;;;;;;;;;;;;;21.29;31.19;97636.94;5017454;28;900;-75
2022/05/28 05:15:10;;;;;;;;;;;;;;;21.24;31.39;97635.50;5017531;28;973;-75
2022/05/28 05:17:35;;;;;;;;;;;;;;;21.19;31.34;97643.72;4999205;28;996;-76
2022/05/28 05:20:00;;;;;;;;;;;;;;;21.18;31.68;97648.59;5017511;28;1914;-73
2022/05/28 05:22:26;;;;;;;;;;;;;;;21.24;31.33;97643.97;5017390;28;976;-74
2022/05/28 05:24:51;;;;;;;;;;;;;;;21.23;31.30;97636.72;5017240;28;1001;-74
2022/05/28 05:27:17;;;;;;;;;;;;;;;21.12;31.50;97644.75;4994985;28;1138;-73
2022/05/28 05:29:42;;;;;;;;;;;;;;;21.33;31.13;97638.44;4995210;28;941;-74
2022/05/28 05:32:08;;;;;;;;;;;;;;;21.23;31.23;97641.56;4995112;28;1007;-74
2022/05/28 05:34:33;;;;;;;;;;;;;;;21.24;31.16;97634.66;4994903;28;1000;-74
2022/05/28 05:36:59;;;;;;;;;;;;;;;21.17;31.54;97646.22;4995057;28;932;-73
2022/05/28 05:39:24;;;;;;;;;;;;;;;21.84;31.20;97632.75;4994959;28;1977;-74
2022/05/28 05:41:49;;;;;;;;;;;;;;;21.95;31.24;97626.72;4995148;28;1205;-73
2022/05/28 05:44:15;;;;;;;;;;;;;;;21.89;31.16;97639.09;4994807;28;917;-74
2022/05/28 05:46:41;;;;;;;;;;;;;;;21.67;31.72;97639.81;4994885;28;975;-74
2022/05/28 05:49:07;;;;;;;;;;;;;;;21.50;31.76;97639.16;4994883;28;971;-73
2022/05/28 05:51:32;;;;;;;;;;;;;;;21.42;31.75;97634.16;4994460;28;950;-73
2022/05/28 05:53:58;;;;;;;;;;;;;;;21.51;31.07;97631.44;4994763;28;1011;-73
2022/05/28 05:56:23;;;;;;;;;;;;;;;21.43;31.28;97642.19;4994935;28;1059;-74
2022/05/28 05:58:49;;;;;;;;;;;;;;;21.38;31.40;97633.47;5010482;28;1906;-73
2022/05/28 06:01:14;;;;;;;;;;;;;;;21.25;31.39;97639.91;5017006;28;950;-74
2022/05/28 06:03:44;;;;;;;;;;;;;;;21.38;31.28;97636.31;5017128;28;919;-73
2022/05/28 06:06:10;;;;;;;;;;;;;;;21.40;30.99;97625.31;5016408;28;900;-73
2022/05/28 06:08:35;;;;;;;;;;;;;;;21.33;30.94;97624.28;5015082;28;984;-75
2022/05/28 06:11:00;;;;;;;;;;;;;;;21.37;31.19;97615.69;5016554;28;858;-73
2022/05/28 06:13:26;;;;;;;;;;;;;;;21.33;30.92;97610.16;5016668;28;979;-73
2022/05/28 06:15:51;;;;;;;;;;;;;;;21.29;30.79;97603.78;5015418;28;981;-73
2022/05/28 06:18:17;;;;;;;;;;;;;;;21.35;30.97;97606.06;5016378;28;930;-74
2022/05/28 06:20:42;;;;;;;;;;;;;;;21.30;30.87;97605.41;5016053;28;1964;-73
2022/05/28 06:23:08;;;;;;;;;;;;;;;21.31;31.20;97609.81;5016017;28;953;-74
2022/05/28 06:25:33;;;;;;;;;;;;;;;21.23;31.03;97599.13;4997433;28;1014;-73
2022/05/28 06:27:59;;;;;;;;;;;;;;;21.26;31.14;97599.03;5016201;28;941;-73
2022/05/28 06:30:24;;;;;;;;;;;;;;;21.39;30.83;97599.06;4997597;28;977;-74
2022/05/28 06:32:50;;;;;;;;;;;;;;;21.33;31.00;97598.81;5016269;28;968;-74
2022/05/28 06:35:15;;;;;;;;;;;;;;;21.43;30.67;97596.91;5015911;28;968;-73
2022/05/28 06:37:41;;;;;;;;;;;;;;;21.27;30.91;97592.13;5015799;28;894;-74
2022/05/28 06:40:06;;;;;;;;;;;;;;;21.33;30.93;97598.81;5016055;28;1993;-74
2022/05/28 06:42:32;;;;;;;;;;;;;;;21.42;30.87;97595.31;5016457;28;1067;-73
2022/05/28 06:44:58;;;;;;;;;;;;;;;21.34;31.01;97593.97;4993904;28;949;-75
2022/05/28 06:47:23;;;;;;;;;;;;;;;21.39;30.88;97586.94;4994056;28;955;-73
2022/05/28 06:51:01;;;;;;;;;;;;;;;21.36;30.80;97587.88;4993842;28;998;-72
2022/05/28 06:52:34;;;;;;;;;;;;;;;21.44;30.98;97592.03;4993760;28;1084;-73
2022/05/28 06:54:59;;;;;;;;;;;;;;;21.26;31.10;97587.72;4973982;28;993;-73
2022/05/28 06:57:25;;;;;;;;;;;;;;;21.25;31.16;97586.13;4974225;28;1050;-73
2022/05/28 06:59:50;;;;;;;;;;;;;;;21.35;30.94;97589.09;4954490;29;1977;-73
2022/05/28 07:02:16;;;;;;;;;;;;;;;21.41;30.89;97575.97;4954727;29;1175;-73
2022/05/28 07:04:41;;;;;;;;;;;;;;;21.36;30.79;97591.50;4954847;29;1000;-74
2022/05/28 07:07:07;;;;;;;;;;;;;;;21.36;30.82;97591.50;4954915;29;1000;-73
2022/05/28 07:09:32;;;;;;;;;;;;;;;21.35;30.85;97594.75;4954474;29;1061;-73
2022/05/28 07:11:58;;;;;;;;;;;;;;;21.20;31.10;97591.56;4955031;29;1036;-73
2022/05/28 07:14:23;;;;;;;;;;;;;;;21.12;31.34;97593.81;4954578;29;987;-73
2022/05/28 07:16:49;;;;;;;;;;;;;;;21.30;30.96;97588.44;4954599;29;990;-73
2022/05/28 07:19:14;;;;;;;;;;;;;;;21.42;30.74;97588.88;4954725;29;1911;-73
2022/05/28 07:21:39;;;;;;;;;;;;;;;21.40;30.91;97597.00;4954995;29;1146;-73
2022/05/28 07:24:05;;;;;;;;;;;;;;;21.27;31.14;97594.94;4954826;29;1087;-73
2022/05/28 07:26:31;;;;;;;;;;;;;;;21.37;31.26;97603.59;4956336;28;982;-73
2022/05/28 07:28:56;;;;;;;;;;;;;;;21.23;31.49;97599.94;4958738;29;974;-73
2022/05/28 07:31:21;;;;;;;;;;;;;;;21.12;31.42;97588.16;4961994;28;1020;-73
2022/05/28 07:33:47;;;;;;;;;;;;;;;21.33;31.15;97583.88;5017024;28;1100;-73
2022/05/28 07:36:14;;;;;;;;;;;;;;;21.41;31.11;97576.75;5016208;28;1597;-74
2022/05/28 07:38:39;;;;;;;;;;;;;;;21.32;31.42;97591.59;4967517;28;1902;-74
2022/05/28 07:41:12;;;;;;;;;;;;;;;21.37;30.97;97586.63;5017930;28;1257;-74
2022/05/28 07:43:38;;;;;;;;;;;;;;;21.27;31.61;97588.50;5038226;28;1427;-74
2022/05/28 07:46:09;;;;;;;;;;;;;;;21.30;31.36;97588.44;5011537;28;1313;-74
2022/05/28 07:48:34;;;;;;;;;;;;;;;21.37;31.26;97592.28;5038408;28;1236;-75
2022/05/28 07:50:59;;;;;;;;;;;;;;;21.33;31.11;97587.50;5038748;28;1222;-74
2022/05/28 07:53:25;;;;;;;;;;;;;;;21.25;31.16;97586.13;5038468;28;1294;-74
2022/05/28 07:55:50;;;;;;;;;;;;;;;21.30;31.60;97582.78;5038192;28;1206;-74
2022/05/28 07:58:16;;;;;;;;;;;;;;;21.41;31.10;97587.28;5038203;28;1213;-74
2022/05/28 08:00:45;;;;;;;;;;;;;;;21.27;31.24;97583.63;5038412;28;1910;-75
2022/05/28 08:03:11;;;;;;;;;;;;;;;21.37;31.33;97580.94;5038346;28;1099;-74
2022/05/28 08:05:37;;;;;;;;;;;;;;;21.36;31.37;97591.50;5038554;28;919;-74
2022/05/28 08:08:03;;;;;;;;;;;;;;;21.31;31.36;97578.69;5038361;28;964;-74
2022/05/28 08:10:28;;;;;;;;;;;;;;;21.35;31.47;97574.94;5038781;28;962;-74
2022/05/28 08:12:54;;;;;;;;;;;;;;;21.43;31.17;97576.31;5038357;28;962;-74
2022/05/28 08:15:19;;;;;;;;;;;;;;;21.38;31.53;97579.69;5003419;28;1159;-74
2022/05/28 08:17:45;;;;;;;;;;;;;;;21.32;31.34;97579.47;5038294;28;885;-74
2022/05/28 08:20:10;;;;;;;;;;;;;;;21.39;31.24;97595.44;5038578;28;1981;-73
2022/05/28 08:25:20;;;;;;;;;;;;;;;21.42;31.03;97575.50;4996520;28;1001;-74
2022/05/28 08:27:45;;;;;;;;;;;;;;;21.39;31.10;97578.44;4996175;28;994;-74
2022/05/28 08:30:11;;;;;;;;;;;;;;;21.40;31.02;97580.03;4996071;28;1003;-74
2022/05/28 08:32:36;;;;;;;;;;;;;;;21.25;31.52;97588.97;4996039;28;1068;-74
2022/05/28 08:35:02;;;;;;;;;;;;;;;21.33;31.34;97581.06;4996271;28;1110;-74
2022/05/28 08:37:28;;;;;;;;;;;;;;;21.35;31.05;97586.25;4995002;28;974;-74
2022/05/28 08:39:53;;;;;;;;;;;;;;;21.42;31.24;97571.91;4996288;28;1910;-74
2022/05/28 08:42:19;;;;;;;;;;;;;;;21.39;31.27;97578.44;4995783;28;1071;-74
2022/05/28 08:44:45;;;;;;;;;;;;;;;21.37;31.31;97581.75;4995846;28;960;-74
2022/05/28 08:47:17;;;;;;;;;;;;;;;21.41;31.16;97587.28;4996037;28;993;-75
2022/05/28 08:49:43;;;;;;;;;;;;;;;21.39;31.02;97593.38;4996115;28;1002;-75
2022/05/28 08:52:27;;;;;;;;;;;;;;;21.43;31.12;97584.78;4995955;28;923;-74
2022/05/28 08:54:57;;;;;;;;;;;;;;;21.39;31.18;97586.94;5015154;28;997;-74
2022/05/28 08:57:28;;;;;;;;;;;;;;;21.40;31.44;97580.03;4976175;28;1159;-74
2022/05/28 09:00:00;;;;;;;;;;;;;;;21.30;31.61;97581.97;4956713;29;1902;-74
2022/05/28 09:02:32;;;;;;;;;;;;;;;21.43;31.37;97581.97;4937688;29;995;-74
2022/05/28 09:04:57;;;;;;;;;;;;;;;21.38;31.10;97576.88;4937440;29;1074;-74
2022/05/28 09:07:23;;;;;;;;;;;;;;;21.34;31.27;97568.50;4937879;29;1098;-74
2022/05/28 09:09:48;;;;;;;;;;;;;;;21.31;31.63;97570.19;4937471;29;1030;-74
2022/05/28 09:12:36;;;;;;;;;;;;;;;21.40;31.18;97563.03;4918623;29;1817;-74
2022/05/28 09:15:02;;;;;;;;;;;;;;;21.39;31.19;97573.56;4899286;29;1082;-74
2022/05/28 09:17:32;;;;;;;;;;;;;;;21.47;31.01;97571.31;4899569;29;1122;-74
2022/05/28 09:20:03;;;;;;;;;;;;;;;21.44;31.17;97569.38;4862088;29;1903;-74
2022/05/28 09:22:29;;;;;;;;;;;;;;;21.40;31.30;97557.38;4861890;29;1153;-74
2022/05/28 09:24:54;;;;;;;;;;;;;;;21.39;31.21;97567.13;4862125;29;1061;-74
2022/05/28 09:27:38;;;;;;;;;;;;;;;21.44;31.13;97564.53;4863533;29;978;-74
2022/05/28 09:30:22;;;;;;;;;;;;;;;21.40;31.22;97569.53;4883799;29;958;-74
2022/05/28 09:32:54;;;;;;;;;;;;;;;21.44;31.07;97566.56;4907976;29;1050;-74
2022/05/28 09:35:38;;;;;;;;;;;;;;;21.50;31.04;97556.25;4917841;29;958;-74
2022/05/28 09:38:05;;;;;;;;;;;;;;;21.38;31.30;97559.88;4917975;29;976;-74
2022/05/28 09:40:31;;;;;;;;;;;;;;;21.39;31.24;97559.44;4917970;29;1989;-74
2022/05/28 09:43:00;;;;;;;;;;;;;;;21.47;31.30;97557.16;4917813;29;1044;-74
2022/05/28 09:45:28;;;;;;;;;;;;;;;21.50;31.08;97562.72;4898514;29;1015;-74
2022/05/28 09:47:53;;;;;;;;;;;;;;;21.41;31.17;97559.00;4861698;29;989;-74
2022/05/28 09:50:22;;;;;;;;;;;;;;;21.54;31.00;97556.91;4888182;29;1153;-74
2022/05/28 09:55:54;;;;;;;;;;;;;;;21.35;31.48;97564.44;4936518;29;1086;-75
2022/05/28 09:58:21;;;;;;;;;;;;;;;21.40;31.27;97568.72;4937055;29;1035;-73
2022/05/28 10:00:46;;;;;;;;;;;;;;;21.43;31.33;97562.16;4936380;29;1902;-74
2022/05/28 10:05:57;;;;;;;;;;;;;;;21.42;31.51;97561.38;4936301;29;1116;-74
2022/05/28 10:08:28;;;;;;;;;;;;;;;21.49;31.06;97566.00;4898523;29;1007;-74
2022/05/28 10:10:55;;;;;;;;;;;;;;;21.49;31.45;97566.00;4898578;29;1005;-74
2022/05/28 10:13:23;;;;;;;;;;;;;;;21.38;31.63;97560.69;4898762;29;996;-74
2022/05/28 10:15:53;;;;;;;;;;;;;;;21.47;31.23;97551.50;4897480;29;2019;-74
2022/05/28 10:18:19;;;;;;;;;;;;;;;21.43;31.43;97562.16;4866013;29;964;-74
2022/05/28 10:20:55;;;;;;;;;;;;;;;21.41;31.36;97553.34;4824410;29;1915;-74
2022/05/28 10:23:20;;;;;;;;;;;;;;;21.43;31.31;97545.16;4812193;29;977;-74
2022/05/28 10:25:48;;;;;;;;;;;;;;;21.54;31.39;97545.59;4806124;29;960;-74
2022/05/28 10:28:14;;;;;;;;;;;;;;;21.44;31.31;97541.09;4824756;29;1079;-74
2022/05/28 10:30:40;;;;;;;;;;;;;;;21.49;31.53;97544.13;4787930;29;1027;-74
2022/05/28 10:33:16;;;;;;;;;;;;;;;21.54;31.10;97540.72;4788095;30;958;-74
2022/05/28 10:35:41;;;;;;;;;;;;;;;21.46;31.21;97532.94;4790995;29;1477;-74
2022/05/28 10:38:07;;;;;;;;;;;;;;;21.28;31.82;97542.78;4833154;29;1344;-74
2022/05/28 10:40:32;;;;;;;;;;;;;;;21.55;31.46;97541.50;4850916;29;1987;-74
2022/05/28 10:43:04;;;;;;;;;;;;;;;21.38;31.69;97537.25;4865449;29;1240;-74
2022/05/28 10:45:43;;;;;;;;;;;;;;;21.45;31.34;97537.00;4868974;29;1308;-74
2022/05/28 10:48:15;;;;;;;;;;;;;;;21.44;31.68;97536.22;4831597;29;1285;-74
2022/05/28 10:50:43;;;;;;;;;;;;;;;21.68;31.08;97545.13;4872447;29;1229;-74
2022/05/28 10:53:28;;;;;;;;;;;;;;;21.49;31.61;97534.84;4888419;29;1311;-74
2022/05/28 10:56:12;;;;;;;;;;;;;;;21.59;31.60;97528.03;4891348;29;1331;-74
2022/05/28 10:59:02;;;;;;;;;;;;;;;21.38;31.73;97528.75;4905349;29;1977;-74
2022/05/28 11:01:31;;;;;;;;;;;;;;;21.36;31.62;97528.44;4900341;29;1715;-74
2022/05/28 11:04:14;;;;;;;;;;;;;;;21.38;31.53;97521.06;4880011;29;1382;-74
2022/05/28 11:06:43;;;;;;;;;;;;;;;21.47;31.38;97523.22;4862347;29;1078;-73
2022/05/28 11:09:15;;;;;;;;;;;;;;;21.53;31.66;97529.88;4860807;29;1007;-73
2022/05/28 11:12:10;;;;;;;;;;;;;;;21.49;31.33;97529.19;4860475;29;1013;-73
2022/05/28 11:14:43;;;;;;;;;;;;;;;21.52;31.34;97528.28;4916710;29;1221;-74
2022/05/28 11:17:08;;;;;;;;;;;;;;;21.50;31.33;97522.28;4921331;29;942;-73
2022/05/28 11:19:36;;;;;;;;;;;;;;;21.44;31.48;97519.22;4897323;29;1898;-74
2022/05/28 11:22:20;;;;;;;;;;;;;;;21.38;31.79;97525.94;4905885;29;1036;-73
2022/05/28 11:24:54;;;;;;;;;;;;;;;21.49;31.71;97520.69;4935337;29;1082;-74
2022/05/28 11:27:36;;;;;;;;;;;;;;;21.51;31.33;97523.88;4935698;29;1056;-73
2022/05/28 11:30:06;;;;;;;;;;;;;;;21.53;31.29;97510.06;4897269;29;1001;-74
2022/05/28 11:32:42;;;;;;;;;;;;;;;21.46;31.41;97510.31;4922525;29;1004;-74
2022/05/28 11:35:14;;;;;;;;;;;;;;;21.50;31.59;97508.13;4932391;29;1021;-73
2022/05/28 11:37:40;;;;;;;;;;;;;;;21.44;31.32;97507.91;4916322;29;1022;-73
2022/05/28 11:40:14;;;;;;;;;;;;;;;21.50;31.30;97505.28;4931946;29;1895;-74
2022/05/28 11:42:47;;;;;;;;;;;;;;;21.72;30.90;97499.72;4932196;29;1005;-73
2022/05/28 11:45:16;;;;;;;;;;;;;;;21.49;31.48;97498.06;4931501;29;1020;-73
2022/05/28 11:47:44;;;;;;;;;;;;;;;21.41;31.74;97502.38;4926333;29;975;-74
2022/05/28 11:53:21;;;;;;;;;;;;;;;21.53;31.24;97493.06;4935215;29;1044;-74
2022/05/28 11:55:48;;;;;;;;;;;;;;;21.45;31.48;97486.06;4935259;29;996;-74
2022/05/28 11:58:18;;;;;;;;;;;;;;;21.60;31.11;97498.47;4951121;28;1027;-73
2022/05/28 12:00:49;;;;;;;;;;;;;;;21.58;31.12;97489.66;4968603;28;1965;-74
2022/05/28 12:03:16;;;;;;;;;;;;;;;21.72;31.12;97494.03;5002328;28;1198;-73
2022/05/28 12:05:47;;;;;;;;;;;;;;;21.53;31.37;97498.72;4973618;28;1137;-74
2022/05/28 12:08:19;;;;;;;;;;;;;;;21.56;31.10;97495.78;4973589;28;984;-74
2022/05/28 12:10:45;;;;;;;;;;;;;;;21.48;31.39;97497.25;4973508;28;959;-74
2022/05/28 12:13:11;;;;;;;;;;;;;;;21.57;31.37;97493.75;4992512;28;951;-74
2022/05/28 12:15:37;;;;;;;;;;;;;;;21.62;31.03;97487.50;4976847;28;1026;-74
2022/05/28 12:18:02;;;;;;;;;;;;;;;21.53;31.07;97493.06;4976912;28;970;-73
2022/05/28 12:20:32;;;;;;;;;;;;;;;21.63;31.06;97485.47;4976686;28;1938;-73
2022/05/28 12:23:01;;;;;;;;;;;;;;;21.57;30.97;97482.41;4960903;28;967;-74
2022/05/28 12:25:29;;;;;;;;;;;;;;;21.67;30.88;97475.59;4976744;28;1079;-73
2022/05/28 12:27:54;;;;;;;;;;;;;;;21.48;31.46;97474.63;4976769;28;986;-74
2022/05/28 12:30:49;;;;;;;;;;;;;;;21.41;31.59;97469.22;4976715;28;1005;-74
2022/05/28 12:33:21;;;;;;;;;;;;;;;21.45;31.32;97463.41;4919152;29;1082;-73
2022/05/28 12:36:13;;;;;;;;;;;;;;;21.61;30.98;97454.78;4919111;29;987;-73
2022/05/28 12:38:43;;;;;;;;;;;;;;;21.69;30.85;97467.41;4917663;29;1057;-75
2022/05/28 12:41:35;;;;;;;;;;;;;;;21.45;31.27;97457.75;4900294;29;1018;-73
2022/05/28 12:44:05;;;;;;;;;;;;;;;21.53;31.11;97456.28;4825920;29;1065;-73
2022/05/28 12:46:41;;;;;;;;;;;;;;;21.58;31.13;97455.69;4790093;30;1141;-73
2022/05/28 12:49:06;;;;;;;;;;;;;;;21.60;30.84;97456.00;4774712;30;1045;-74
2022/05/28 12:51:52;;;;;;;;;;;;;;;21.45;31.07;97457.75;4789810;30;1061;-74
2022/05/28 12:54:27;;;;;;;;;;;;;;;21.50;31.29;97448.69;4789402;29;1080;-74
2022/05/28 12:57:03;;;;;;;;;;;;;;;21.59;30.97;97445.94;4753996;30;1048;-73
2022/05/28 12:59:30;;;;;;;;;;;;;;;21.58;30.90;97444.38;4753835;30;1908;-74
2022/05/28 13:01:57;;;;;;;;;;;;;;;21.64;31.06;97448.19;4754181;30;1004;-73
2022/05/28 13:04:22;;;;;;;;;;;;;;;21.48;31.02;97446.31;4738903;30;1059;-73
2022/05/28 13:06:49;;;;;;;;;;;;;;;21.57;30.89;97443.56;4754048;30;1031;-73
2022/05/28 13:09:14;;;;;;;;;;;;;;;21.51;31.05;97444.63;4765996;30;1059;-74
2022/05/28 13:11:50;;;;;;;;;;;;;;;21.50;31.27;97438.19;4789169;30;940;-74
2022/05/28 13:14:48;;;;;;;;;;;;;;;21.43;31.26;97434.78;4804423;29;1175;-74
2022/05/28 13:17:43;;;;;;;;;;;;;;;21.55;30.88;97445.25;4865252;29;1037;-74